sensor_id;sensor_type;location;lat;lon;timestamp;P1;durP1;ratioP1;P2;durP2;ratioP2
14799;SDS011;7491;57.750;11.970;2022-10-04T00:01:50;8.52;;;3.97;;
14799;SDS011;7491;57.750;11.970;2022-10-04T00:04:23;13.57;;;3.85;;
14799;SDS011;7491;57.750;11.970;2022-10-04T00:06:56;10.80;;;4.15;;
14799;SDS011;7491;57.750;11.970;2022-10-04T00:09:28;11.65;;;4.10;;
14799;SDS011;7491;57.750;11.970;2022-10-04T00:11:59;9.70;;;4.10;;
14799;SDS011;7491;57.750;11.970;2022-10-04T00:14:27;7.75;;;3.22;;
14799;SDS011;7491;57.750;11.970;2022-10-04T00:16:58;9.48;;;3.80;;
14799;SDS011;7491;57.750;11.970;2022-10-04T00:19:40;9.05;;;3.88;;
14799;SDS011;7491;57.750;11.970;2022-10-04T00:22:19;8.23;;;3.80;;
14799;SDS011;7491;57.750;11.970;2022-10-04T00:30:40;7.18;;;2.80;;
14799;SDS011;7491;57.750;11.970;2022-10-04T00:33:07;9.85;;;3.40;;
14799;SDS011;7491;57.750;11.970;2022-10-04T00:38:24;5.90;;;3.10;;
14799;SDS011;7491;57.750;11.970;2022-10-04T00:40:54;11.77;;;3.70;;
14799;SDS011;7491;57.750;11.970;2022-10-04T00:43:28;7.53;;;3.08;;
14799;SDS011;7491;57.750;11.970;2022-10-04T00:46:00;13.10;;;3.30;;
14799;SDS011;7491;57.750;11.970;2022-10-04T00:48:35;6.28;;;2.65;;
14799;SDS011;7491;57.750;11.970;2022-10-04T00:51:16;11.73;;;3.22;;
14799;SDS011;7491;57.750;11.970;2022-10-04T00:53:54;5.15;;;2.92;;
14799;SDS011;7491;57.750;11.970;2022-10-04T00:56:30;6.97;;;3.25;;
14799;SDS011;7491;57.750;11.970;2022-10-04T01:01:53;11.55;;;3.90;;
14799;SDS011;7491;57.750;11.970;2022-10-04T01:04:26;8.63;;;3.38;;
14799;SDS011;7491;57.750;11.970;2022-10-04T01:07:00;10.93;;;2.92;;
14799;SDS011;7491;57.750;11.970;2022-10-04T01:09:29;12.63;;;3.10;;
14799;SDS011;7491;57.750;11.970;2022-10-04T01:11:59;11.20;;;3.40;;
14799;SDS011;7491;57.750;11.970;2022-10-04T01:14:29;7.78;;;3.13;;
14799;SDS011;7491;57.750;11.970;2022-10-04T01:17:06;9.30;;;3.25;;
14799;SDS011;7491;57.750;11.970;2022-10-04T01:19:33;13.40;;;4.05;;
14799;SDS011;7491;57.750;11.970;2022-10-04T01:22:09;12.13;;;4.50;;
14799;SDS011;7491;57.750;11.970;2022-10-04T01:24:41;11.90;;;3.00;;
14799;SDS011;7491;57.750;11.970;2022-10-04T01:29:59;10.63;;;3.63;;
14799;SDS011;7491;57.750;11.970;2022-10-04T01:32:26;13.23;;;3.75;;
14799;SDS011;7491;57.750;11.970;2022-10-04T01:34:55;24.95;;;4.30;;
14799;SDS011;7491;57.750;11.970;2022-10-04T01:37:22;19.85;;;5.22;;
14799;SDS011;7491;57.750;11.970;2022-10-04T01:39:50;27.33;;;4.82;;
14799;SDS011;7491;57.750;11.970;2022-10-04T01:42:17;25.52;;;4.60;;
14799;SDS011;7491;57.750;11.970;2022-10-04T01:44:49;37.40;;;4.97;;
14799;SDS011;7491;57.750;11.970;2022-10-04T01:47:23;42.72;;;4.20;;
14799;SDS011;7491;57.750;11.970;2022-10-04T01:49:52;57.97;;;5.57;;
14799;SDS011;7491;57.750;11.970;2022-10-04T01:52:22;68.07;;;5.05;;
14799;SDS011;7491;57.750;11.970;2022-10-04T01:54:59;66.07;;;5.55;;
14799;SDS011;7491;57.750;11.970;2022-10-04T01:57:32;153.60;;;8.50;;
14799;SDS011;7491;57.750;11.970;2022-10-04T02:00:03;65.03;;;6.80;;
14799;SDS011;7491;57.750;11.970;2022-10-04T02:02:33;161.63;;;10.98;;
14799;SDS011;7491;57.750;11.970;2022-10-04T02:05:05;46.45;;;4.22;;
14799;SDS011;7491;57.750;11.970;2022-10-04T02:07:59;77.45;;;5.70;;
14799;SDS011;7491;57.750;11.970;2022-10-04T02:11:04;79.85;;;6.20;;
14799;SDS011;7491;57.750;11.970;2022-10-04T02:13:41;73.95;;;6.72;;
14799;SDS011;7491;57.750;11.970;2022-10-04T02:16:39;51.50;;;5.22;;
14799;SDS011;7491;57.750;11.970;2022-10-04T02:22:20;29.83;;;5.18;;
14799;SDS011;7491;57.750;11.970;2022-10-04T02:25:15;17.95;;;3.88;;
14799;SDS011;7491;57.750;11.970;2022-10-04T02:28:11;119.07;;;7.25;;
14799;SDS011;7491;57.750;11.970;2022-10-04T04:14:33;14.48;;;4.13;;
14799;SDS011;7491;57.750;11.970;2022-10-04T04:21:11;15.68;;;4.30;;
14799;SDS011;7491;57.750;11.970;2022-10-04T04:24:23;17.13;;;4.60;;
14799;SDS011;7491;57.750;11.970;2022-10-04T04:26:57;21.50;;;4.55;;
14799;SDS011;7491;57.750;11.970;2022-10-04T04:29:30;17.65;;;4.13;;
14799;SDS011;7491;57.750;11.970;2022-10-04T04:32:07;10.55;;;4.25;;
14799;SDS011;7491;57.750;11.970;2022-10-04T04:34:47;19.65;;;3.95;;
14799;SDS011;7491;57.750;11.970;2022-10-04T04:37:28;16.23;;;4.95;;
14799;SDS011;7491;57.750;11.970;2022-10-04T04:44:19;18.30;;;5.60;;
14799;SDS011;7491;57.750;11.970;2022-10-04T04:47:24;16.63;;;4.70;;
14799;SDS011;7491;57.750;11.970;2022-10-04T04:50:01;15.00;;;4.38;;
14799;SDS011;7491;57.750;11.970;2022-10-04T04:52:42;18.95;;;4.45;;
14799;SDS011;7491;57.750;11.970;2022-10-04T04:55:17;12.13;;;4.32;;
14799;SDS011;7491;57.750;11.970;2022-10-04T04:57:51;13.45;;;4.22;;
14799;SDS011;7491;57.750;11.970;2022-10-04T05:00:21;22.65;;;4.57;;
14799;SDS011;7491;57.750;11.970;2022-10-04T05:02:56;22.67;;;5.07;;
14799;SDS011;7491;57.750;11.970;2022-10-04T05:05:24;13.63;;;3.67;;
14799;SDS011;7491;57.750;11.970;2022-10-04T05:10:54;18.58;;;5.50;;
14799;SDS011;7491;57.750;11.970;2022-10-04T05:13:30;15.90;;;5.10;;
14799;SDS011;7491;57.750;11.970;2022-10-04T05:16:04;16.88;;;4.25;;
14799;SDS011;7491;57.750;11.970;2022-10-04T05:18:38;21.85;;;4.88;;
14799;SDS011;7491;57.750;11.970;2022-10-04T05:21:06;18.58;;;3.78;;
14799;SDS011;7491;57.750;11.970;2022-10-04T05:23:37;16.60;;;4.32;;
14799;SDS011;7491;57.750;11.970;2022-10-04T05:26:04;17.45;;;4.68;;
14799;SDS011;7491;57.750;11.970;2022-10-04T05:28:36;16.30;;;4.78;;
14799;SDS011;7491;57.750;11.970;2022-10-04T05:31:16;17.25;;;3.97;;
14799;SDS011;7491;57.750;11.970;2022-10-04T05:33:55;12.85;;;3.33;;
14799;SDS011;7491;57.750;11.970;2022-10-04T05:39:32;12.88;;;3.97;;
14799;SDS011;7491;57.750;11.970;2022-10-04T05:42:08;23.95;;;4.22;;
14799;SDS011;7491;57.750;11.970;2022-10-04T05:44:45;12.13;;;3.80;;
14799;SDS011;7491;57.750;11.970;2022-10-04T05:47:14;19.33;;;4.07;;
14799;SDS011;7491;57.750;11.970;2022-10-04T05:49:48;12.75;;;4.90;;
14799;SDS011;7491;57.750;11.970;2022-10-04T05:52:24;15.85;;;4.38;;
14799;SDS011;7491;57.750;11.970;2022-10-04T05:57:45;17.58;;;4.43;;
14799;SDS011;7491;57.750;11.970;2022-10-04T06:00:22;17.13;;;4.53;;
14799;SDS011;7491;57.750;11.970;2022-10-04T06:03:15;15.85;;;4.40;;
14799;SDS011;7491;57.750;11.970;2022-10-04T06:05:55;26.52;;;5.10;;
14799;SDS011;7491;57.750;11.970;2022-10-04T06:08:32;16.15;;;4.32;;
14799;SDS011;7491;57.750;11.970;2022-10-04T06:11:13;19.58;;;5.47;;
14799;SDS011;7491;57.750;11.970;2022-10-04T06:14:03;23.02;;;5.50;;
14799;SDS011;7491;57.750;11.970;2022-10-04T06:17:00;25.25;;;5.63;;
14799;SDS011;7491;57.750;11.970;2022-10-04T06:19:47;29.85;;;6.55;;
14799;SDS011;7491;57.750;11.970;2022-10-04T06:22:26;25.52;;;6.22;;
14799;SDS011;7491;57.750;11.970;2022-10-04T06:24:53;19.38;;;5.68;;
14799;SDS011;7491;57.750;11.970;2022-10-04T06:27:26;20.88;;;6.10;;
14799;SDS011;7491;57.750;11.970;2022-10-04T06:30:00;19.40;;;6.38;;
14799;SDS011;7491;57.750;11.970;2022-10-04T06:41:22;25.23;;;5.45;;
14799;SDS011;7491;57.750;11.970;2022-10-04T06:44:07;24.55;;;5.78;;
14799;SDS011;7491;57.750;11.970;2022-10-04T06:46:54;24.60;;;5.30;;
14799;SDS011;7491;57.750;11.970;2022-10-04T06:49:32;20.83;;;5.43;;
14799;SDS011;7491;57.750;11.970;2022-10-04T06:52:09;17.95;;;6.07;;
14799;SDS011;7491;57.750;11.970;2022-10-04T06:54:53;23.52;;;5.20;;
14799;SDS011;7491;57.750;11.970;2022-10-04T06:57:37;26.42;;;5.22;;
14799;SDS011;7491;57.750;11.970;2022-10-04T07:00:14;19.60;;;4.85;;
14799;SDS011;7491;57.750;11.970;2022-10-04T07:02:45;13.52;;;4.63;;
14799;SDS011;7491;57.750;11.970;2022-10-04T07:05:17;16.02;;;5.10;;
14799;SDS011;7491;57.750;11.970;2022-10-04T07:07:55;19.63;;;5.22;;
14799;SDS011;7491;57.750;11.970;2022-10-04T07:10:34;19.08;;;6.20;;
14799;SDS011;7491;57.750;11.970;2022-10-04T07:15:58;23.05;;;6.50;;
14799;SDS011;7491;57.750;11.970;2022-10-04T07:18:31;22.95;;;7.63;;
14799;SDS011;7491;57.750;11.970;2022-10-04T07:21:04;24.27;;;7.20;;
14799;SDS011;7491;57.750;11.970;2022-10-04T07:23:36;22.95;;;7.45;;
14799;SDS011;7491;57.750;11.970;2022-10-04T07:26:15;27.80;;;7.20;;
14799;SDS011;7491;57.750;11.970;2022-10-04T07:28:48;19.60;;;6.60;;
14799;SDS011;7491;57.750;11.970;2022-10-04T07:31:35;17.17;;;6.90;;
14799;SDS011;7491;57.750;11.970;2022-10-04T07:34:07;20.48;;;6.78;;
14799;SDS011;7491;57.750;11.970;2022-10-04T07:36:37;22.08;;;6.55;;
14799;SDS011;7491;57.750;11.970;2022-10-04T07:39:10;20.83;;;7.45;;
14799;SDS011;7491;57.750;11.970;2022-10-04T07:41:44;20.02;;;7.43;;
14799;SDS011;7491;57.750;11.970;2022-10-04T07:44:17;21.92;;;6.68;;
14799;SDS011;7491;57.750;11.970;2022-10-04T07:46:52;25.73;;;6.63;;
14799;SDS011;7491;57.750;11.970;2022-10-04T07:49:23;25.70;;;6.82;;
14799;SDS011;7491;57.750;11.970;2022-10-04T07:51:57;24.88;;;6.05;;
14799;SDS011;7491;57.750;11.970;2022-10-04T07:54:32;23.92;;;7.47;;
14799;SDS011;7491;57.750;11.970;2022-10-04T07:57:07;24.70;;;6.50;;
14799;SDS011;7491;57.750;11.970;2022-10-04T07:59:42;25.13;;;6.35;;
14799;SDS011;7491;57.750;11.970;2022-10-04T08:02:17;35.90;;;7.30;;
14799;SDS011;7491;57.750;11.970;2022-10-04T08:04:53;25.02;;;7.07;;
14799;SDS011;7491;57.750;11.970;2022-10-04T08:07:31;21.60;;;6.90;;
14799;SDS011;7491;57.750;11.970;2022-10-04T08:10:12;25.63;;;7.35;;
14799;SDS011;7491;57.750;11.970;2022-10-04T08:12:50;26.05;;;6.80;;
14799;SDS011;7491;57.750;11.970;2022-10-04T08:15:35;27.83;;;8.27;;
14799;SDS011;7491;57.750;11.970;2022-10-04T08:18:05;20.48;;;7.20;;
14799;SDS011;7491;57.750;11.970;2022-10-04T08:20:47;21.38;;;7.28;;
14799;SDS011;7491;57.750;11.970;2022-10-04T08:23:24;21.85;;;7.60;;
14799;SDS011;7491;57.750;11.970;2022-10-04T08:26:06;21.58;;;6.43;;
14799;SDS011;7491;57.750;11.970;2022-10-04T08:28:47;20.55;;;6.30;;
14799;SDS011;7491;57.750;11.970;2022-10-04T08:31:56;22.33;;;6.18;;
14799;SDS011;7491;57.750;11.970;2022-10-04T08:34:32;16.23;;;6.22;;
14799;SDS011;7491;57.750;11.970;2022-10-04T08:37:20;20.60;;;6.05;;
14799;SDS011;7491;57.750;11.970;2022-10-04T08:40:06;22.67;;;5.57;;
14799;SDS011;7491;57.750;11.970;2022-10-04T08:49:11;23.38;;;5.13;;
14799;SDS011;7491;57.750;11.970;2022-10-04T08:52:11;23.70;;;5.80;;
14799;SDS011;7491;57.750;11.970;2022-10-04T08:58:11;21.92;;;5.05;;
14799;SDS011;7491;57.750;11.970;2022-10-04T09:03:44;22.92;;;7.00;;
14799;SDS011;7491;57.750;11.970;2022-10-04T09:06:41;22.77;;;5.97;;
14799;SDS011;7491;57.750;11.970;2022-10-04T09:09:29;20.63;;;6.18;;
14799;SDS011;7491;57.750;11.970;2022-10-04T09:15:28;17.23;;;5.32;;
14799;SDS011;7491;57.750;11.970;2022-10-04T09:18:14;19.40;;;5.45;;
14799;SDS011;7491;57.750;11.970;2022-10-04T09:20:55;17.02;;;4.53;;
14799;SDS011;7491;57.750;11.970;2022-10-04T09:26:27;15.65;;;3.60;;
14799;SDS011;7491;57.750;11.970;2022-10-04T09:29:09;14.60;;;3.72;;
14799;SDS011;7491;57.750;11.970;2022-10-04T09:31:50;12.90;;;3.47;;
14799;SDS011;7491;57.750;11.970;2022-10-04T09:34:44;16.45;;;3.67;;
14799;SDS011;7491;57.750;11.970;2022-10-04T09:37:41;19.40;;;4.13;;
14799;SDS011;7491;57.750;11.970;2022-10-04T09:43:28;14.77;;;4.32;;
14799;SDS011;7491;57.750;11.970;2022-10-04T09:46:18;18.77;;;4.78;;
14799;SDS011;7491;57.750;11.970;2022-10-04T09:49:02;15.82;;;4.85;;
14799;SDS011;7491;57.750;11.970;2022-10-04T09:51:57;17.15;;;4.70;;
14799;SDS011;7491;57.750;11.970;2022-10-04T09:54:45;12.80;;;4.88;;
14799;SDS011;7491;57.750;11.970;2022-10-04T09:57:28;21.20;;;5.32;;
14799;SDS011;7491;57.750;11.970;2022-10-04T10:00:15;18.60;;;4.75;;
14799;SDS011;7491;57.750;11.970;2022-10-04T10:05:47;9.93;;;4.15;;
14799;SDS011;7491;57.750;11.970;2022-10-04T10:08:29;15.25;;;3.83;;
14799;SDS011;7491;57.750;11.970;2022-10-04T10:11:03;20.40;;;4.55;;
14799;SDS011;7491;57.750;11.970;2022-10-04T10:14:00;13.80;;;4.45;;
14799;SDS011;7491;57.750;11.970;2022-10-04T10:16:52;12.00;;;4.10;;
14799;SDS011;7491;57.750;11.970;2022-10-04T10:22:44;17.17;;;3.83;;
14799;SDS011;7491;57.750;11.970;2022-10-04T10:28:24;15.18;;;3.63;;
14799;SDS011;7491;57.750;11.970;2022-10-04T10:31:09;12.63;;;3.38;;
14799;SDS011;7491;57.750;11.970;2022-10-04T10:34:01;12.50;;;2.85;;
14799;SDS011;7491;57.750;11.970;2022-10-04T10:36:52;11.33;;;3.67;;
14799;SDS011;7491;57.750;11.970;2022-10-04T10:42:42;17.50;;;3.10;;
14799;SDS011;7491;57.750;11.970;2022-10-04T10:45:27;12.55;;;3.00;;
14799;SDS011;7491;57.750;11.970;2022-10-04T10:48:14;12.63;;;3.50;;
14799;SDS011;7491;57.750;11.970;2022-10-04T10:50:51;8.13;;;2.95;;
14799;SDS011;7491;57.750;11.970;2022-10-04T10:56:51;12.88;;;2.80;;
14799;SDS011;7491;57.750;11.970;2022-10-04T10:59:39;10.15;;;3.10;;
14799;SDS011;7491;57.750;11.970;2022-10-04T11:02:44;12.00;;;3.25;;
14799;SDS011;7491;57.750;11.970;2022-10-04T11:05:58;7.25;;;2.55;;
14799;SDS011;7491;57.750;11.970;2022-10-04T11:11:57;15.30;;;3.42;;
14799;SDS011;7491;57.750;11.970;2022-10-04T11:18:00;12.88;;;3.20;;
14799;SDS011;7491;57.750;11.970;2022-10-04T11:20:43;9.45;;;2.40;;
14799;SDS011;7491;57.750;11.970;2022-10-04T11:29:46;10.00;;;2.67;;
14799;SDS011;7491;57.750;11.970;2022-10-04T11:32:28;12.73;;;3.25;;
14799;SDS011;7491;57.750;11.970;2022-10-04T11:38:19;11.32;;;3.10;;
14799;SDS011;7491;57.750;11.970;2022-10-04T11:41:08;13.82;;;3.42;;
14799;SDS011;7491;57.750;11.970;2022-10-04T11:46:47;7.30;;;3.20;;
14799;SDS011;7491;57.750;11.970;2022-10-04T11:49:23;12.35;;;3.10;;
14799;SDS011;7491;57.750;11.970;2022-10-04T11:52:07;13.10;;;3.60;;
14799;SDS011;7491;57.750;11.970;2022-10-04T11:58:01;12.05;;;3.42;;
14799;SDS011;7491;57.750;11.970;2022-10-04T12:03:26;10.65;;;3.05;;
14799;SDS011;7491;57.750;11.970;2022-10-04T12:06:17;14.05;;;3.50;;
14799;SDS011;7491;57.750;11.970;2022-10-04T12:09:00;8.65;;;2.95;;
14799;SDS011;7491;57.750;11.970;2022-10-04T12:11:36;13.27;;;4.05;;
14799;SDS011;7491;57.750;11.970;2022-10-04T12:14:37;13.50;;;3.40;;
14799;SDS011;7491;57.750;11.970;2022-10-04T12:23:25;11.50;;;3.33;;
14799;SDS011;7491;57.750;11.970;2022-10-04T12:26:24;10.35;;;3.55;;
14799;SDS011;7491;57.750;11.970;2022-10-04T12:32:22;14.23;;;3.58;;
14799;SDS011;7491;57.750;11.970;2022-10-04T12:34:56;12.73;;;3.22;;
14799;SDS011;7491;57.750;11.970;2022-10-04T12:37:28;17.08;;;3.42;;
14799;SDS011;7491;57.750;11.970;2022-10-04T12:40:06;13.13;;;3.28;;
14799;SDS011;7491;57.750;11.970;2022-10-04T12:42:53;16.00;;;2.70;;
14799;SDS011;7491;57.750;11.970;2022-10-04T12:48:32;10.65;;;3.05;;
14799;SDS011;7491;57.750;11.970;2022-10-04T12:51:15;14.80;;;3.55;;
14799;SDS011;7491;57.750;11.970;2022-10-04T12:53:52;16.65;;;2.80;;
14799;SDS011;7491;57.750;11.970;2022-10-04T12:56:33;9.20;;;2.92;;
14799;SDS011;7491;57.750;11.970;2022-10-04T12:59:26;11.73;;;3.13;;
14799;SDS011;7491;57.750;11.970;2022-10-04T13:02:09;11.55;;;2.45;;
14799;SDS011;7491;57.750;11.970;2022-10-04T13:04:50;10.35;;;2.80;;
14799;SDS011;7491;57.750;11.970;2022-10-04T13:07:27;13.98;;;2.83;;
14799;SDS011;7491;57.750;11.970;2022-10-04T13:10:07;9.13;;;2.63;;
14799;SDS011;7491;57.750;11.970;2022-10-04T13:12:55;7.93;;;2.70;;
14799;SDS011;7491;57.750;11.970;2022-10-04T13:15:37;10.50;;;2.63;;
14799;SDS011;7491;57.750;11.970;2022-10-04T13:18:13;10.60;;;2.50;;
14799;SDS011;7491;57.750;11.970;2022-10-04T13:20:51;11.00;;;3.20;;
14799;SDS011;7491;57.750;11.970;2022-10-04T13:23:37;8.00;;;2.60;;
14799;SDS011;7491;57.750;11.970;2022-10-04T13:29:15;11.82;;;2.80;;
14799;SDS011;7491;57.750;11.970;2022-10-04T13:31:51;11.60;;;2.88;;
14799;SDS011;7491;57.750;11.970;2022-10-04T13:34:26;9.07;;;2.60;;
14799;SDS011;7491;57.750;11.970;2022-10-04T13:37:03;7.05;;;2.90;;
14799;SDS011;7491;57.750;11.970;2022-10-04T13:39:45;10.32;;;2.65;;
14799;SDS011;7491;57.750;11.970;2022-10-04T13:42:33;14.02;;;3.42;;
14799;SDS011;7491;57.750;11.970;2022-10-04T13:45:20;9.32;;;2.50;;
14799;SDS011;7491;57.750;11.970;2022-10-04T13:48:02;9.00;;;2.60;;
14799;SDS011;7491;57.750;11.970;2022-10-04T13:50:52;10.93;;;2.50;;
14799;SDS011;7491;57.750;11.970;2022-10-04T13:53:46;11.27;;;3.47;;
14799;SDS011;7491;57.750;11.970;2022-10-04T13:59:49;10.43;;;3.28;;
14799;SDS011;7491;57.750;11.970;2022-10-04T14:15:34;13.43;;;4.18;;
14799;SDS011;7491;57.750;11.970;2022-10-04T14:21:18;12.40;;;4.40;;
14799;SDS011;7491;57.750;11.970;2022-10-04T14:24:09;12.10;;;4.30;;
14799;SDS011;7491;57.750;11.970;2022-10-04T14:27:11;14.77;;;3.67;;
14799;SDS011;7491;57.750;11.970;2022-10-04T14:30:11;14.80;;;4.13;;
14799;SDS011;7491;57.750;11.970;2022-10-04T14:35:56;12.07;;;3.33;;
14799;SDS011;7491;57.750;11.970;2022-10-04T14:38:54;13.15;;;3.10;;
14799;SDS011;7491;57.750;11.970;2022-10-04T14:41:40;11.75;;;3.38;;
14799;SDS011;7491;57.750;11.970;2022-10-04T14:47:29;8.02;;;3.15;;
14799;SDS011;7491;57.750;11.970;2022-10-04T14:50:15;12.02;;;3.42;;
14799;SDS011;7491;57.750;11.970;2022-10-04T14:52:50;16.65;;;3.80;;
14799;SDS011;7491;57.750;11.970;2022-10-04T14:55:43;10.65;;;3.80;;
14799;SDS011;7491;57.750;11.970;2022-10-04T14:58:30;14.63;;;3.65;;
14799;SDS011;7491;57.750;11.970;2022-10-04T15:01:11;13.98;;;4.82;;
14799;SDS011;7491;57.750;11.970;2022-10-04T15:06:36;10.00;;;3.92;;
14799;SDS011;7491;57.750;11.970;2022-10-04T15:15:26;15.82;;;3.58;;
14799;SDS011;7491;57.750;11.970;2022-10-04T15:18:02;12.98;;;3.38;;
14799;SDS011;7491;57.750;11.970;2022-10-04T15:20:46;15.52;;;3.53;;
14799;SDS011;7491;57.750;11.970;2022-10-04T15:23:28;16.88;;;3.40;;
14799;SDS011;7491;57.750;11.970;2022-10-04T15:26:01;16.70;;;3.38;;
14799;SDS011;7491;57.750;11.970;2022-10-04T15:29:01;15.43;;;3.83;;
14799;SDS011;7491;57.750;11.970;2022-10-04T15:31:39;19.20;;;3.90;;
14799;SDS011;7491;57.750;11.970;2022-10-04T15:34:24;15.35;;;3.28;;
14799;SDS011;7491;57.750;11.970;2022-10-04T15:37:05;15.52;;;4.10;;
14799;SDS011;7491;57.750;11.970;2022-10-04T15:39:46;16.48;;;4.07;;
14799;SDS011;7491;57.750;11.970;2022-10-04T15:42:31;13.20;;;3.35;;
14799;SDS011;7491;57.750;11.970;2022-10-04T15:45:34;15.65;;;3.92;;
14799;SDS011;7491;57.750;11.970;2022-10-04T15:48:22;11.93;;;3.10;;
14799;SDS011;7491;57.750;11.970;2022-10-04T15:51:08;12.38;;;3.20;;
14799;SDS011;7491;57.750;11.970;2022-10-04T15:53:50;13.23;;;3.13;;
14799;SDS011;7491;57.750;11.970;2022-10-04T15:56:32;11.05;;;3.60;;
14799;SDS011;7491;57.750;11.970;2022-10-04T15:59:17;13.85;;;3.42;;
14799;SDS011;7491;57.750;11.970;2022-10-04T16:01:53;13.43;;;3.80;;
14799;SDS011;7491;57.750;11.970;2022-10-04T16:05:00;14.73;;;3.50;;
14799;SDS011;7491;57.750;11.970;2022-10-04T16:07:50;18.30;;;4.03;;
14799;SDS011;7491;57.750;11.970;2022-10-04T16:10:30;14.60;;;3.47;;
14799;SDS011;7491;57.750;11.970;2022-10-04T16:13:25;8.95;;;3.10;;
14799;SDS011;7491;57.750;11.970;2022-10-04T16:19:24;16.05;;;3.90;;
14799;SDS011;7491;57.750;11.970;2022-10-04T16:22:08;17.80;;;3.92;;
14799;SDS011;7491;57.750;11.970;2022-10-04T16:24:40;15.32;;;4.03;;
14799;SDS011;7491;57.750;11.970;2022-10-04T16:27:21;8.20;;;3.40;;
14799;SDS011;7491;57.750;11.970;2022-10-04T16:30:11;11.32;;;3.92;;
14799;SDS011;7491;57.750;11.970;2022-10-04T16:32:43;15.40;;;3.95;;
14799;SDS011;7491;57.750;11.970;2022-10-04T16:35:24;12.77;;;3.50;;
14799;SDS011;7491;57.750;11.970;2022-10-04T16:37:55;14.50;;;4.15;;
14799;SDS011;7491;57.750;11.970;2022-10-04T16:40:31;19.65;;;4.55;;
14799;SDS011;7491;57.750;11.970;2022-10-04T16:43:05;19.80;;;4.40;;
14799;SDS011;7491;57.750;11.970;2022-10-04T16:45:40;18.95;;;4.03;;
14799;SDS011;7491;57.750;11.970;2022-10-04T16:48:26;10.25;;;3.35;;
14799;SDS011;7491;57.750;11.970;2022-10-04T16:53:57;20.88;;;4.18;;
14799;SDS011;7491;57.750;11.970;2022-10-04T16:56:30;12.55;;;3.45;;
14799;SDS011;7491;57.750;11.970;2022-10-04T16:59:00;14.82;;;3.60;;
14799;SDS011;7491;57.750;11.970;2022-10-04T17:04:49;14.02;;;4.13;;
14799;SDS011;7491;57.750;11.970;2022-10-04T17:07:36;16.35;;;4.18;;
14799;SDS011;7491;57.750;11.970;2022-10-04T17:10:28;20.27;;;4.60;;
14799;SDS011;7491;57.750;11.970;2022-10-04T17:13:06;18.50;;;4.50;;
14799;SDS011;7491;57.750;11.970;2022-10-04T17:15:48;18.25;;;5.00;;
14799;SDS011;7491;57.750;11.970;2022-10-04T17:18:29;20.83;;;4.97;;
14799;SDS011;7491;57.750;11.970;2022-10-04T17:21:10;16.80;;;4.03;;
14799;SDS011;7491;57.750;11.970;2022-10-04T17:26:47;16.55;;;4.10;;
14799;SDS011;7491;57.750;11.970;2022-10-04T17:29:42;16.83;;;4.53;;
14799;SDS011;7491;57.750;11.970;2022-10-04T17:32:21;18.85;;;4.40;;
14799;SDS011;7491;57.750;11.970;2022-10-04T17:34:56;22.30;;;4.90;;
14799;SDS011;7491;57.750;11.970;2022-10-04T17:37:38;20.45;;;6.03;;
14799;SDS011;7491;57.750;11.970;2022-10-04T17:43:06;21.40;;;6.28;;
14799;SDS011;7491;57.750;11.970;2022-10-04T17:45:46;23.52;;;6.85;;
14799;SDS011;7491;57.750;11.970;2022-10-04T17:48:22;25.67;;;5.63;;
14799;SDS011;7491;57.750;11.970;2022-10-04T17:51:10;22.92;;;6.15;;
14799;SDS011;7491;57.750;11.970;2022-10-04T17:54:00;24.15;;;5.70;;
14799;SDS011;7491;57.750;11.970;2022-10-04T17:57:06;27.17;;;6.60;;
14799;SDS011;7491;57.750;11.970;2022-10-04T17:59:39;33.55;;;5.97;;
14799;SDS011;7491;57.750;11.970;2022-10-04T18:02:09;24.08;;;6.22;;
14799;SDS011;7491;57.750;11.970;2022-10-04T18:04:46;20.23;;;6.25;;
14799;SDS011;7491;57.750;11.970;2022-10-04T18:07:16;20.17;;;6.03;;
14799;SDS011;7491;57.750;11.970;2022-10-04T18:09:46;21.20;;;7.28;;
14799;SDS011;7491;57.750;11.970;2022-10-04T18:12:22;23.80;;;6.68;;
14799;SDS011;7491;57.750;11.970;2022-10-04T18:14:56;26.67;;;6.50;;
14799;SDS011;7491;57.750;11.970;2022-10-04T18:17:30;19.20;;;6.47;;
14799;SDS011;7491;57.750;11.970;2022-10-04T18:22:57;29.88;;;7.40;;
14799;SDS011;7491;57.750;11.970;2022-10-04T18:25:26;23.63;;;5.93;;
14799;SDS011;7491;57.750;11.970;2022-10-04T18:27:59;23.55;;;6.90;;
14799;SDS011;7491;57.750;11.970;2022-10-04T18:30:31;31.48;;;6.88;;
14799;SDS011;7491;57.750;11.970;2022-10-04T18:32:58;23.05;;;6.07;;
14799;SDS011;7491;57.750;11.970;2022-10-04T18:35:26;32.42;;;7.38;;
14799;SDS011;7491;57.750;11.970;2022-10-04T18:37:56;26.60;;;7.75;;
14799;SDS011;7491;57.750;11.970;2022-10-04T18:40:39;16.52;;;6.45;;
14799;SDS011;7491;57.750;11.970;2022-10-04T18:43:21;25.13;;;6.70;;
14799;SDS011;7491;57.750;11.970;2022-10-04T18:45:58;23.42;;;7.63;;
14799;SDS011;7491;57.750;11.970;2022-10-04T18:48:35;24.27;;;7.75;;
14799;SDS011;7491;57.750;11.970;2022-10-04T18:51:19;24.58;;;6.53;;
14799;SDS011;7491;57.750;11.970;2022-10-04T18:53:50;30.35;;;8.48;;
14799;SDS011;7491;57.750;11.970;2022-10-04T18:56:26;19.98;;;6.00;;
14799;SDS011;7491;57.750;11.970;2022-10-04T18:58:59;21.10;;;6.15;;
14799;SDS011;7491;57.750;11.970;2022-10-04T19:01:52;22.45;;;5.80;;
14799;SDS011;7491;57.750;11.970;2022-10-04T19:04:43;22.50;;;6.50;;
14799;SDS011;7491;57.750;11.970;2022-10-04T19:07:15;20.17;;;6.13;;
14799;SDS011;7491;57.750;11.970;2022-10-04T19:09:50;18.42;;;5.53;;
14799;SDS011;7491;57.750;11.970;2022-10-04T19:12:30;24.30;;;5.38;;
14799;SDS011;7491;57.750;11.970;2022-10-04T19:15:02;17.13;;;5.53;;
14799;SDS011;7491;57.750;11.970;2022-10-04T19:17:40;15.82;;;4.95;;
14799;SDS011;7491;57.750;11.970;2022-10-04T19:20:15;23.73;;;5.50;;
14799;SDS011;7491;57.750;11.970;2022-10-04T19:22:49;14.45;;;3.97;;
14799;SDS011;7491;57.750;11.970;2022-10-04T19:25:29;16.45;;;5.22;;
14799;SDS011;7491;57.750;11.970;2022-10-04T19:28:01;16.13;;;3.70;;
14799;SDS011;7491;57.750;11.970;2022-10-04T19:30:40;13.95;;;3.65;;
14799;SDS011;7491;57.750;11.970;2022-10-04T19:33:17;16.40;;;4.32;;
14799;SDS011;7491;57.750;11.970;2022-10-04T19:36:02;13.35;;;3.90;;
14799;SDS011;7491;57.750;11.970;2022-10-04T19:38:45;16.60;;;4.28;;
14799;SDS011;7491;57.750;11.970;2022-10-04T19:41:25;14.93;;;4.55;;
14799;SDS011;7491;57.750;11.970;2022-10-04T19:44:02;16.85;;;4.60;;
14799;SDS011;7491;57.750;11.970;2022-10-04T19:46:37;19.10;;;4.20;;
14799;SDS011;7491;57.750;11.970;2022-10-04T19:49:10;13.15;;;3.67;;
14799;SDS011;7491;57.750;11.970;2022-10-04T19:51:44;13.32;;;4.55;;
14799;SDS011;7491;57.750;11.970;2022-10-04T19:54:16;14.98;;;4.07;;
14799;SDS011;7491;57.750;11.970;2022-10-04T19:56:51;18.20;;;3.75;;
14799;SDS011;7491;57.750;11.970;2022-10-04T19:59:24;22.38;;;4.43;;
14799;SDS011;7491;57.750;11.970;2022-10-04T20:02:00;12.50;;;4.28;;
14799;SDS011;7491;57.750;11.970;2022-10-04T20:04:27;15.18;;;4.28;;
14799;SDS011;7491;57.750;11.970;2022-10-04T20:07:00;16.15;;;4.03;;
14799;SDS011;7491;57.750;11.970;2022-10-04T20:09:30;9.90;;;3.85;;
14799;SDS011;7491;57.750;11.970;2022-10-04T20:12:28;14.05;;;3.70;;
14799;SDS011;7491;57.750;11.970;2022-10-04T20:15:16;11.02;;;3.28;;
14799;SDS011;7491;57.750;11.970;2022-10-04T20:17:46;19.00;;;4.20;;
14799;SDS011;7491;57.750;11.970;2022-10-04T20:20:14;11.35;;;3.22;;
14799;SDS011;7491;57.750;11.970;2022-10-04T20:23:02;15.95;;;3.67;;
14799;SDS011;7491;57.750;11.970;2022-10-04T20:28:44;13.27;;;3.92;;
14799;SDS011;7491;57.750;11.970;2022-10-04T20:34:21;9.23;;;3.28;;
14799;SDS011;7491;57.750;11.970;2022-10-04T20:36:55;12.77;;;3.75;;